Max Planck — ELZY8 — position and weather

sailwx.info

Track history (hours):
 
Tides and Currents Weather Stations Pressure Air Temp Water Temp Dewpoint Dewpoint Depression Visibility Wind Speed Wind Dir Waves Ship Positions

Max Planck

Last reported at 2018-Feb-17 21:25 UTC. Time now 2018-Feb-18 08:47 UTC.
Position N 30°59' E 122°33'.

Length 99.9 m; beam 16.2 m; draft 6.8 m.

Type: Ship. MMSI: 636017362.

Date/timePositionNaut miles runAvg speedWind from/ knotsBaromVisibWave heightAir tempDewpointWater temp
2018-Feb-17 21:25N 30°59' E 122°33'612.2
2018-Feb-17 20:58N 31°00' E 122°27'612.9
2018-Feb-17 20:30N 31°02' E 122°20'713.2
2018-Feb-17 20:00N 31°02' E 122°13'611.3
2018-Feb-17 19:30N 31°04' E 122°06'612.2
2018-Feb-17 19:00N 31°06' E 121°59'510.1
2018-Feb-17 18:30N 31°08' E 121°54'510.3
2018-Feb-17 17:59N 31°12' E 121°50'5 9.5
2018-Feb-17 17:28N 31°15' E 121°46'7910.3
2018-Feb-17 09:45N 32°02' E 120°30'3 9.9
2018-Feb-17 09:25N 32°02' E 120°26'  
2018-Feb-13 08:50N 32°02' E 120°25'3710.2
2018-Feb-13 05:14N 31°45' E 121°05'312.9
2018-Feb-13 05:00N 31°44' E 121°07'713.5
2018-Feb-13 04:30N 31°39' E 121°13'713.3
2018-Feb-13 04:00N 31°34' E 121°19'612.2
2018-Feb-13 03:30N 31°31' E 121°24'611.7
2018-Feb-13 02:59N 31°26' E 121°29'5 9.4
2018-Feb-13 02:29N 31°24' E 121°34'1411.0
2018-Feb-13 01:11N 31°15' E 121°47'313.8
2018-Feb-13 01:00N 31°13' E 121°49'713.9
2018-Feb-13 00:30N 31°08' E 121°55'611.3
2018-Feb-13 00:00N 31°05' E 122°00'611.7
2018-Feb-12 23:30N 31°04' E 122°07'510.7
2018-Feb-12 23:00N 31°03' E 122°13'4 8.9
2018-Feb-12 22:31N 31°03' E 122°18'612.4
2018-Feb-12 22:00N 31°01' E 122°26'612.4
2018-Feb-12 21:31N 30°60' E 122°33'5 9.3
2018-Feb-12 21:00N 31°01' E 122°38'0 0.2
2018-Feb-12 20:27N 31°01' E 122°38'  
Track history (hours):
 
Tides and Currents Weather Stations Pressure Air Temp Water Temp Dewpoint Dewpoint Depression Visibility Wind Speed Wind Dir Waves Ship Positions

Max Planck

Last reported at 2018-Feb-17 21:25 UTC. Time now 2018-Feb-18 08:47 UTC.
Position N 30°59' E 122°33'.

Length 99.9 m; beam 16.2 m; draft 6.8 m.

Type: Ship. MMSI: 636017362.

Date/timePositionNaut miles runAvg speedWind from/ knotsBaromVisibWave heightAir tempDewpointWater temp
2018-Feb-17 21:25N 30°59' E 122°33'612.2
2018-Feb-17 20:58N 31°00' E 122°27'612.9
2018-Feb-17 20:30N 31°02' E 122°20'713.2
2018-Feb-17 20:00N 31°02' E 122°13'611.3
2018-Feb-17 19:30N 31°04' E 122°06'612.2
2018-Feb-17 19:00N 31°06' E 121°59'510.1
2018-Feb-17 18:30N 31°08' E 121°54'510.3
2018-Feb-17 17:59N 31°12' E 121°50'5 9.5
2018-Feb-17 17:28N 31°15' E 121°46'7910.3
2018-Feb-17 09:45N 32°02' E 120°30'3 9.9
2018-Feb-17 09:25N 32°02' E 120°26'  
2018-Feb-13 08:50N 32°02' E 120°25'3710.2
2018-Feb-13 05:14N 31°45' E 121°05'312.9
2018-Feb-13 05:00N 31°44' E 121°07'713.5
2018-Feb-13 04:30N 31°39' E 121°13'713.3
2018-Feb-13 04:00N 31°34' E 121°19'612.2
2018-Feb-13 03:30N 31°31' E 121°24'611.7
2018-Feb-13 02:59N 31°26' E 121°29'5 9.4
2018-Feb-13 02:29N 31°24' E 121°34'1411.0
2018-Feb-13 01:11N 31°15' E 121°47'313.8
2018-Feb-13 01:00N 31°13' E 121°49'713.9
2018-Feb-13 00:30N 31°08' E 121°55'611.3
2018-Feb-13 00:00N 31°05' E 122°00'611.7
2018-Feb-12 23:30N 31°04' E 122°07'510.7
2018-Feb-12 23:00N 31°03' E 122°13'4 8.9
2018-Feb-12 22:31N 31°03' E 122°18'612.4
2018-Feb-12 22:00N 31°01' E 122°26'612.4
2018-Feb-12 21:31N 30°60' E 122°33'5 9.3
2018-Feb-12 21:00N 31°01' E 122°38'0 0.2
2018-Feb-12 20:27N 31°01' E 122°38'  

Dump ship's entire track history